createdAt,value
2023-05-15T00:01:00.737Z,23.18
2023-05-15T00:02:06.129Z,23.18
2023-05-15T00:03:11.926Z,23.18
2023-05-15T00:04:17.680Z,23.19
2023-05-15T00:05:23.322Z,23.18
2023-05-15T00:06:29.484Z,23.18
2023-05-15T00:07:34.798Z,23.17
2023-05-15T00:08:40.133Z,23.18
2023-05-15T00:09:45.466Z,23.18
2023-05-15T00:11:00.545Z,23.18
2023-05-15T00:12:06.470Z,23.18
2023-05-15T00:13:11.759Z,23.19
2023-05-15T00:14:17.072Z,23.17
2023-05-15T00:15:22.423Z,23.19
2023-05-15T00:16:28.626Z,23.2
2023-05-15T00:17:34.111Z,23.19
2023-05-15T00:18:39.602Z,23.19
2023-05-15T00:19:45.002Z,23.19
2023-05-15T00:20:50.353Z,23.18
2023-05-15T00:21:55.759Z,23.19
2023-05-15T00:23:01.201Z,23.18
2023-05-15T00:24:06.509Z,23.18
2023-05-15T00:25:11.832Z,23.18
2023-05-15T00:26:17.165Z,23.19
2023-05-15T00:27:22.520Z,23.18
2023-05-15T00:28:27.942Z,23.17
2023-05-15T00:29:33.308Z,23.17
2023-05-15T00:30:38.676Z,23.17
2023-05-15T00:31:44.136Z,23.17
2023-05-15T00:32:49.630Z,23.19
2023-05-15T00:33:55.160Z,23.18
2023-05-15T00:35:00.569Z,23.17
2023-05-15T00:36:05.906Z,23.18
2023-05-15T00:37:11.232Z,23.2
2023-05-15T00:38:16.565Z,23.19
2023-05-15T00:39:21.920Z,23.18
2023-05-15T00:40:27.261Z,23.18
2023-05-15T00:41:32.619Z,23.17
2023-05-15T00:42:37.975Z,23.18
2023-05-15T00:43:43.356Z,23.17
2023-05-15T00:44:48.680Z,23.17
2023-05-15T00:45:53.992Z,23.16
2023-05-15T00:46:59.392Z,23.15
2023-05-15T00:48:05.097Z,23.16
2023-05-15T00:49:10.527Z,23.15
2023-05-15T00:50:15.865Z,23.16
2023-05-15T00:51:21.197Z,23.16
2023-05-15T00:52:26.537Z,23.14
2023-05-15T00:53:31.913Z,23.15
2023-05-15T00:54:37.681Z,23.16
2023-05-15T00:55:43.046Z,23.15
2023-05-15T00:56:48.426Z,23.17
2023-05-15T00:57:53.751Z,23.16
2023-05-15T00:58:59.093Z,23.17
2023-05-15T01:00:04.565Z,23.16
2023-05-15T01:01:09.923Z,23.16
2023-05-15T01:02:15.457Z,23.15
2023-05-15T01:03:20.914Z,23.16
2023-05-15T01:04:26.505Z,23.15
2023-05-15T01:05:31.855Z,23.15
2023-05-15T01:06:37.172Z,23.15
2023-05-15T01:07:42.549Z,23.15
2023-05-15T01:08:47.886Z,23.15
2023-05-15T01:09:53.272Z,23.15
2023-05-15T01:10:58.629Z,23.14
2023-05-15T01:12:03.932Z,23.14
2023-05-15T01:13:09.268Z,23.15
2023-05-15T01:14:14.607Z,23.14
2023-05-15T01:15:20.038Z,23.15
2023-05-15T01:16:25.714Z,23.14
2023-05-15T01:17:31.068Z,23.15
2023-05-15T01:18:36.560Z,23.16
2023-05-15T01:19:42.396Z,23.16
2023-05-15T01:20:48.066Z,23.17
2023-05-15T01:21:53.418Z,23.17
2023-05-15T01:22:58.771Z,23.16
2023-05-15T01:24:04.156Z,23.16
2023-05-15T01:25:09.471Z,23.15
2023-05-15T01:26:14.829Z,23.16
2023-05-15T01:27:20.204Z,23.17
2023-05-15T01:28:25.555Z,23.17
2023-05-15T01:29:30.934Z,23.17
2023-05-15T01:30:36.354Z,23.16
2023-05-15T01:31:41.743Z,23.16
2023-05-15T01:32:47.237Z,23.14
2023-05-15T01:33:52.773Z,23.15
2023-05-15T01:34:58.143Z,23.16
2023-05-15T01:36:03.539Z,23.15
2023-05-15T01:37:08.876Z,23.16
2023-05-15T01:38:14.193Z,23.15
2023-05-15T01:39:19.552Z,23.15
2023-05-15T01:40:24.902Z,23.15
2023-05-15T01:41:30.233Z,23.17
2023-05-15T01:42:35.602Z,23.15
2023-05-15T01:43:40.962Z,23.14
2023-05-15T01:44:46.312Z,23.15
2023-05-15T01:45:51.756Z,23.13
2023-05-15T01:46:57.239Z,23.14
2023-05-15T01:48:02.608Z,23.15
2023-05-15T01:49:08.136Z,23.14
2023-05-15T01:50:13.573Z,23.15
2023-05-15T01:51:18.945Z,23.16
2023-05-15T01:52:24.294Z,23.15
2023-05-15T01:53:29.740Z,23.15
2023-05-15T01:54:35.118Z,23.15
2023-05-15T01:55:40.450Z,23.17
2023-05-15T01:56:45.802Z,23.18
2023-05-15T01:57:51.166Z,23.18
2023-05-15T01:58:56.533Z,23.16
2023-05-15T02:00:01.882Z,23.17
2023-05-15T02:01:07.229Z,23.18
2023-05-15T02:02:12.827Z,23.18
2023-05-15T02:03:18.274Z,23.17
2023-05-15T02:04:24.145Z,23.17
2023-05-15T02:05:29.462Z,23.17
2023-05-15T02:06:34.897Z,23.18
2023-05-15T02:07:40.227Z,23.19
2023-05-15T02:08:45.610Z,23.21
2023-05-15T02:09:51.001Z,23.19
2023-05-15T02:10:56.338Z,23.19
2023-05-15T02:12:01.677Z,23.19
2023-05-15T02:13:07.037Z,23.18
2023-05-15T02:14:12.420Z,23.19
2023-05-15T02:15:17.740Z,23.19
2023-05-15T02:16:23.172Z,23.16
2023-05-15T02:17:28.734Z,23.18
2023-05-15T02:18:34.219Z,23.18
2023-05-15T02:19:39.698Z,23.17
2023-05-15T02:20:45.030Z,23.18
2023-05-15T02:21:50.370Z,23.2
2023-05-15T02:22:55.707Z,23.19
2023-05-15T02:24:01.032Z,23.17
2023-05-15T02:25:06.367Z,23.18
2023-05-15T02:26:11.752Z,23.17
2023-05-15T02:27:17.091Z,23.18
2023-05-15T02:28:22.441Z,23.19
2023-05-15T02:29:27.977Z,23.2
2023-05-15T02:30:33.299Z,23.2
2023-05-15T02:31:38.677Z,23.19
2023-05-15T02:32:44.253Z,23.2
2023-05-15T02:33:49.721Z,23.19
2023-05-15T02:34:55.036Z,23.18
2023-05-15T02:36:00.374Z,23.18
2023-05-15T02:37:05.750Z,23.17
2023-05-15T02:38:11.100Z,23.17
2023-05-15T02:39:16.444Z,23.18
2023-05-15T02:40:21.782Z,23.19
2023-05-15T02:41:27.140Z,23.2
2023-05-15T02:42:33.483Z,23.19
2023-05-15T02:43:38.814Z,23.18
2023-05-15T02:44:44.144Z,23.17
2023-05-15T02:45:49.517Z,23.17
2023-05-15T02:46:55.028Z,23.17
2023-05-15T02:48:00.397Z,23.17
2023-05-15T02:49:05.965Z,23.17
2023-05-15T02:50:11.318Z,23.16
2023-05-15T02:51:16.657Z,23.16
2023-05-15T02:52:21.999Z,23.15
2023-05-15T02:53:27.331Z,23.15
2023-05-15T02:54:32.648Z,23.17
2023-05-15T02:55:38.280Z,23.15
2023-05-15T02:56:43.718Z,23.15
2023-05-15T02:57:49.171Z,23.15
2023-05-15T02:58:54.500Z,23.16
2023-05-15T02:59:59.825Z,23.17
2023-05-15T03:01:05.218Z,23.17
2023-05-15T03:02:10.701Z,23.17
2023-05-15T03:03:16.052Z,23.15
2023-05-15T03:04:21.415Z,23.16
2023-05-15T03:05:27.288Z,23.15
2023-05-15T03:06:33.070Z,23.18
2023-05-15T03:07:41.495Z,23.17
2023-05-15T03:08:46.832Z,23.15
2023-05-15T03:09:52.212Z,23.16
2023-05-15T03:10:58.279Z,23.15
2023-05-15T03:12:04.129Z,23.13
2023-05-15T03:13:09.484Z,23.14
2023-05-15T03:14:14.824Z,23.15
2023-05-15T03:15:20.184Z,23.14
2023-05-15T03:16:25.813Z,23.14
2023-05-15T03:17:31.289Z,23.15
2023-05-15T03:18:36.838Z,23.14
2023-05-15T03:19:42.278Z,23.14
2023-05-15T03:20:47.634Z,23.14
2023-05-15T03:21:53.057Z,23.14
2023-05-15T03:22:58.543Z,23.14
2023-05-15T03:24:03.891Z,23.15
2023-05-15T03:25:09.242Z,23.14
2023-05-15T03:26:14.698Z,23.14
2023-05-15T03:27:20.065Z,23.16
2023-05-15T03:28:25.407Z,23.15
2023-05-15T03:29:30.731Z,23.16
2023-05-15T03:30:36.074Z,23.16
2023-05-15T03:31:41.462Z,23.16
2023-05-15T03:32:47.023Z,23.18
2023-05-15T03:33:52.552Z,23.18
2023-05-15T03:34:57.917Z,23.18
2023-05-15T03:36:03.267Z,23.17
2023-05-15T03:37:08.584Z,23.18
2023-05-15T03:38:13.923Z,23.19
2023-05-15T03:39:19.238Z,23.19
2023-05-15T03:40:24.576Z,23.2
2023-05-15T03:41:29.966Z,23.19
2023-05-15T03:42:35.318Z,23.2
2023-05-15T03:43:40.661Z,23.21
2023-05-15T03:44:45.992Z,23.2
2023-05-15T03:45:51.351Z,23.2
2023-05-15T03:46:56.754Z,23.2
2023-05-15T03:48:02.305Z,23.21
2023-05-15T03:49:07.771Z,23.21
2023-05-15T03:50:13.087Z,23.2
2023-05-15T03:51:18.461Z,23.2
2023-05-15T03:52:23.794Z,23.21
2023-05-15T03:53:29.134Z,23.2
2023-05-15T03:54:34.486Z,23.22
2023-05-15T03:55:39.840Z,23.2
2023-05-15T03:56:45.182Z,23.19
2023-05-15T03:57:50.611Z,23.19
2023-05-15T03:58:55.956Z,23.22
2023-05-15T04:00:01.353Z,23.26
2023-05-15T04:01:06.731Z,23.32
2023-05-15T04:02:12.165Z,23.26
2023-05-15T04:03:17.678Z,23.17
2023-05-15T04:04:23.497Z,23.08
2023-05-15T04:05:28.964Z,23.03
2023-05-15T04:06:34.500Z,22.98
2023-05-15T04:07:39.892Z,22.95
2023-05-15T04:08:45.213Z,22.92
2023-05-15T04:09:50.571Z,22.9
2023-05-15T04:10:55.983Z,22.9
2023-05-15T04:12:01.304Z,22.9
2023-05-15T04:13:06.643Z,22.87
2023-05-15T04:14:11.958Z,22.85
2023-05-15T04:15:17.329Z,22.85
2023-05-15T04:16:22.821Z,22.83
2023-05-15T04:17:28.256Z,22.85
2023-05-15T04:18:33.663Z,22.84
2023-05-15T04:19:40.353Z,22.82
2023-05-15T04:20:47.222Z,22.8
2023-05-15T04:21:52.566Z,22.8
2023-05-15T04:22:57.864Z,22.78
2023-05-15T04:24:03.252Z,22.8
2023-05-15T04:25:08.595Z,22.78
2023-05-15T04:26:13.912Z,22.8
2023-05-15T04:27:19.230Z,22.79
2023-05-15T04:28:24.546Z,22.78
2023-05-15T04:29:31.400Z,22.75
2023-05-15T04:30:36.742Z,22.74
2023-05-15T04:31:42.083Z,22.72
2023-05-15T04:32:47.727Z,22.72
2023-05-15T04:33:53.254Z,22.72
2023-05-15T04:34:58.586Z,22.71
2023-05-15T04:36:04.069Z,22.71
2023-05-15T04:37:09.432Z,22.68
2023-05-15T04:38:14.760Z,22.68
2023-05-15T04:39:20.089Z,22.67
2023-05-15T04:40:25.383Z,22.69
2023-05-15T04:41:30.755Z,22.7
2023-05-15T04:42:36.318Z,22.69
2023-05-15T04:43:43.665Z,22.68
2023-05-15T04:44:49.004Z,22.69
2023-05-15T04:45:54.357Z,22.71
2023-05-15T04:46:59.769Z,22.7
2023-05-15T04:48:05.261Z,22.7
2023-05-15T04:49:10.781Z,22.69
2023-05-15T04:50:16.289Z,22.7
2023-05-15T04:51:21.619Z,22.69
2023-05-15T04:52:27.004Z,22.65
2023-05-15T04:53:32.378Z,22.65
2023-05-15T04:54:37.735Z,22.66
2023-05-15T04:55:43.080Z,22.65
2023-05-15T04:56:48.639Z,22.63
2023-05-15T04:57:54.064Z,22.64
2023-05-15T04:58:59.378Z,22.65
2023-05-15T05:00:04.760Z,22.64
2023-05-15T05:01:11.185Z,22.61
2023-05-15T05:02:16.615Z,22.6
2023-05-15T05:03:22.096Z,22.61
2023-05-15T05:04:27.605Z,22.58
2023-05-15T05:05:32.942Z,22.57
2023-05-15T05:06:38.276Z,22.6
2023-05-15T05:07:43.605Z,22.6
2023-05-15T05:08:48.961Z,22.61
2023-05-15T05:09:54.320Z,22.59
2023-05-15T05:10:59.641Z,22.58
2023-05-15T05:12:05.002Z,22.57
2023-05-15T05:13:10.346Z,22.58
2023-05-15T05:14:15.732Z,22.59
2023-05-15T05:15:21.112Z,22.58
2023-05-15T05:16:26.892Z,22.57
2023-05-15T05:17:32.454Z,22.58
2023-05-15T05:18:37.978Z,22.58
2023-05-15T05:19:43.458Z,22.58
2023-05-15T05:20:48.792Z,22.57
2023-05-15T05:21:54.100Z,22.57
2023-05-15T05:22:59.480Z,22.56
2023-05-15T05:24:05.112Z,22.55
2023-05-15T05:25:10.459Z,22.55
2023-05-15T05:26:15.829Z,22.55
2023-05-15T05:27:21.156Z,22.57
2023-05-15T05:28:26.618Z,22.56
2023-05-15T05:29:32.036Z,22.53
2023-05-15T05:30:37.376Z,22.53
2023-05-15T05:31:42.757Z,22.52
2023-05-15T05:32:48.235Z,22.52
2023-05-15T05:33:53.667Z,22.51
2023-05-15T05:34:58.998Z,22.51
2023-05-15T05:36:04.427Z,22.51
2023-05-15T05:37:09.776Z,22.51
2023-05-15T05:38:15.116Z,22.52
2023-05-15T05:39:20.450Z,22.52
2023-05-15T05:40:25.884Z,22.53
2023-05-15T05:41:31.273Z,22.53
2023-05-15T05:42:36.607Z,22.52
2023-05-15T05:43:41.979Z,22.53
2023-05-15T05:44:47.354Z,22.52
2023-05-15T05:45:52.684Z,22.51
2023-05-15T05:46:58.026Z,22.5
2023-05-15T05:48:03.545Z,22.52
2023-05-15T05:49:09.057Z,22.5
2023-05-15T05:50:14.371Z,22.5
2023-05-15T05:51:19.737Z,22.5
2023-05-15T05:52:25.256Z,22.48
2023-05-15T05:53:30.647Z,22.5
2023-05-15T05:54:35.988Z,22.5
2023-05-15T05:55:41.351Z,22.5
2023-05-15T05:56:46.676Z,22.48
2023-05-15T05:57:52.044Z,22.48
2023-05-15T05:58:57.392Z,22.49
2023-05-15T06:00:02.719Z,22.48
2023-05-15T06:01:08.182Z,22.47
2023-05-15T06:02:13.563Z,22.49
2023-05-15T06:03:19.071Z,22.51
2023-05-15T06:04:24.819Z,22.5
2023-05-15T06:05:30.302Z,22.48
2023-05-15T06:06:35.611Z,22.48
2023-05-15T06:07:40.949Z,22.48
2023-05-15T06:08:46.275Z,22.48
2023-05-15T06:09:51.678Z,22.48
2023-05-15T06:10:57.083Z,22.46
2023-05-15T06:12:02.400Z,22.47
2023-05-15T06:13:07.718Z,22.47
2023-05-15T06:14:13.049Z,22.47
2023-05-15T06:15:18.441Z,22.48
2023-05-15T06:16:23.801Z,22.49
2023-05-15T06:17:29.280Z,22.5
2023-05-15T06:18:34.698Z,22.49
2023-05-15T06:19:40.151Z,22.48
2023-05-15T06:20:45.602Z,22.46
2023-05-15T06:21:50.909Z,22.47
2023-05-15T06:22:56.241Z,22.47
2023-05-15T06:24:01.561Z,22.46
2023-05-15T06:25:06.890Z,22.47
2023-05-15T06:26:12.279Z,22.47
2023-05-15T06:27:17.639Z,22.48
2023-05-15T06:28:22.961Z,22.48
2023-05-15T06:29:28.355Z,22.47
2023-05-15T06:30:33.753Z,22.48
2023-05-15T06:31:39.261Z,22.47
2023-05-15T06:32:44.658Z,22.45
2023-05-15T06:33:50.235Z,22.46
2023-05-15T06:34:55.578Z,22.47
2023-05-15T06:36:00.998Z,22.48
2023-05-15T06:37:06.394Z,22.49
2023-05-15T06:38:11.773Z,22.48
2023-05-15T06:39:17.221Z,22.46
2023-05-15T06:40:22.662Z,22.46
2023-05-15T06:41:28.900Z,22.46
2023-05-15T06:42:34.229Z,22.47
2023-05-15T06:43:39.554Z,22.47
2023-05-15T06:44:44.986Z,22.46
2023-05-15T06:45:50.402Z,22.46
2023-05-15T06:46:55.826Z,22.46
2023-05-15T06:48:01.942Z,22.45
2023-05-15T06:49:07.529Z,22.5
2023-05-15T06:50:12.845Z,22.52
2023-05-15T06:51:18.173Z,22.49
2023-05-15T06:52:23.507Z,22.51
2023-05-15T06:53:28.896Z,22.53
2023-05-15T06:54:34.262Z,22.52
2023-05-15T06:55:39.604Z,22.51
2023-05-15T06:56:44.957Z,22.5
2023-05-15T06:57:50.352Z,22.5
2023-05-15T06:58:55.712Z,22.49
2023-05-15T07:00:01.072Z,22.48
2023-05-15T07:01:06.522Z,22.47
2023-05-15T07:02:11.959Z,22.45
2023-05-15T07:03:17.534Z,22.49
2023-05-15T07:04:22.906Z,22.47
2023-05-15T07:05:28.310Z,22.47
2023-05-15T07:06:33.769Z,22.46
2023-05-15T07:07:39.186Z,22.46
2023-05-15T07:08:44.510Z,22.46
2023-05-15T07:09:49.847Z,22.44
2023-05-15T07:10:55.155Z,22.45
2023-05-15T07:12:00.481Z,22.46
2023-05-15T07:13:05.796Z,22.45
2023-05-15T07:14:11.221Z,22.46
2023-05-15T07:15:16.512Z,22.44
2023-05-15T07:16:21.908Z,22.46
2023-05-15T07:17:27.275Z,22.45
2023-05-15T07:18:32.972Z,22.45
2023-05-15T07:19:38.599Z,22.44
2023-05-15T07:20:43.916Z,22.45
2023-05-15T07:21:51.550Z,22.46
2023-05-15T07:22:57.111Z,22.46
2023-05-15T07:24:02.477Z,22.46
2023-05-15T07:25:07.808Z,22.46
2023-05-15T07:26:16.768Z,22.47
2023-05-15T07:27:46.148Z,22.46
2023-05-15T07:28:51.491Z,22.43
2023-05-15T07:29:56.853Z,22.43
2023-05-15T07:31:03.012Z,22.43
2023-05-15T07:32:08.640Z,22.45
2023-05-15T07:33:14.080Z,22.45
2023-05-15T07:34:19.402Z,22.44
2023-05-15T07:35:24.991Z,22.44
2023-05-15T07:36:31.045Z,22.45
2023-05-15T07:37:36.433Z,22.43
2023-05-15T07:38:41.782Z,22.43
2023-05-15T07:39:47.143Z,22.42
2023-05-15T07:40:52.588Z,22.41
2023-05-15T07:41:57.899Z,22.43
2023-05-15T07:43:03.232Z,22.42
2023-05-15T07:44:08.592Z,22.42
2023-05-15T07:45:14.055Z,22.43
2023-05-15T07:46:19.581Z,22.43
2023-05-15T07:47:25.179Z,22.44
2023-05-15T07:48:30.709Z,22.43
2023-05-15T07:49:36.074Z,22.4
2023-05-15T07:50:41.382Z,22.4
2023-05-15T07:51:46.706Z,22.4
2023-05-15T07:52:52.114Z,22.43
2023-05-15T07:53:57.476Z,22.4
2023-05-15T07:55:02.832Z,22.39
2023-05-15T07:56:08.167Z,22.4
2023-05-15T07:57:13.530Z,22.4
2023-05-15T07:58:18.875Z,22.4
2023-05-15T07:59:24.279Z,22.42
2023-05-15T08:00:29.897Z,22.41
2023-05-15T08:01:35.269Z,22.43
2023-05-15T08:02:40.755Z,22.42
2023-05-15T08:03:46.492Z,22.4
2023-05-15T08:04:52.108Z,22.41
2023-05-15T08:05:57.509Z,22.42
2023-05-15T08:07:02.899Z,22.42
2023-05-15T08:08:08.227Z,22.41
2023-05-15T08:09:13.570Z,22.4
2023-05-15T08:10:19.158Z,22.4
2023-05-15T08:11:24.586Z,22.4
2023-05-15T08:12:29.934Z,22.39
2023-05-15T08:13:35.311Z,22.4
2023-05-15T08:14:40.745Z,22.4
2023-05-15T08:15:46.573Z,22.39
2023-05-15T08:16:52.067Z,22.4
2023-05-15T08:17:57.467Z,22.39
2023-05-15T08:19:03.150Z,22.39
2023-05-15T08:20:08.821Z,22.4
2023-05-15T08:21:14.151Z,22.39
2023-05-15T08:22:19.503Z,22.39
2023-05-15T08:23:24.871Z,22.39
2023-05-15T08:24:30.240Z,22.41
2023-05-15T08:25:35.592Z,22.41
2023-05-15T08:26:40.989Z,22.42
2023-05-15T08:27:46.451Z,22.4
2023-05-15T08:28:51.830Z,22.4
2023-05-15T08:29:57.149Z,22.39
2023-05-15T08:31:02.555Z,22.4
2023-05-15T08:32:07.986Z,22.4
2023-05-15T08:33:13.336Z,22.4
2023-05-15T08:34:18.693Z,22.4
2023-05-15T08:35:24.241Z,22.4
2023-05-15T08:36:30.661Z,22.39
2023-05-15T08:37:40.380Z,22.37
2023-05-15T08:38:45.697Z,22.37
2023-05-15T08:39:51.000Z,22.38
2023-05-15T08:40:56.341Z,22.37
2023-05-15T08:42:01.748Z,22.39
2023-05-15T08:43:07.102Z,22.4
2023-05-15T08:44:12.424Z,22.39
2023-05-15T08:45:17.772Z,22.37
2023-05-15T08:46:23.194Z,22.4
2023-05-15T08:47:28.784Z,22.4
2023-05-15T08:48:34.358Z,22.41
2023-05-15T08:49:41.429Z,22.4
2023-05-15T08:50:47.312Z,22.43
2023-05-15T08:51:52.693Z,22.41
2023-05-15T08:52:58.007Z,22.4
2023-05-15T08:54:03.602Z,22.41
2023-05-15T08:55:08.905Z,22.41
2023-05-15T08:56:14.249Z,22.41
2023-05-15T08:57:19.569Z,22.42
2023-05-15T08:58:24.895Z,22.41
2023-05-15T08:59:30.246Z,22.43
2023-05-15T09:00:35.624Z,22.41
2023-05-15T09:01:40.948Z,22.42
2023-05-15T09:02:46.481Z,22.42
2023-05-15T09:03:52.112Z,22.42
2023-05-15T09:04:57.755Z,22.41
2023-05-15T09:06:03.896Z,22.45
2023-05-15T09:07:09.211Z,22.45
2023-05-15T09:08:14.531Z,22.47
2023-05-15T09:09:19.848Z,22.45
2023-05-15T09:10:25.139Z,22.48
2023-05-15T09:11:30.442Z,22.48
2023-05-15T09:12:35.794Z,22.49
2023-05-15T09:13:41.274Z,22.48
2023-05-15T09:14:46.587Z,22.47
2023-05-15T09:15:52.193Z,22.48
2023-05-15T09:16:57.561Z,22.48
2023-05-15T09:18:03.059Z,22.47
2023-05-15T09:19:08.596Z,22.48
2023-05-15T09:20:14.171Z,22.48
2023-05-15T09:21:19.485Z,22.49
2023-05-15T09:22:24.797Z,22.5
2023-05-15T09:23:30.104Z,22.52
2023-05-15T09:24:35.393Z,22.51
2023-05-15T09:25:40.703Z,22.5
2023-05-15T09:26:46.004Z,22.49
2023-05-15T09:27:51.335Z,22.48
2023-05-15T09:28:56.633Z,22.47
2023-05-15T09:30:01.966Z,22.48
2023-05-15T09:31:07.360Z,22.48
2023-05-15T09:32:12.805Z,22.49
2023-05-15T09:33:18.593Z,22.47
2023-05-15T09:34:23.916Z,22.48
2023-05-15T09:35:29.386Z,22.46
2023-05-15T09:36:35.207Z,22.46
2023-05-15T09:37:40.786Z,22.46
2023-05-15T09:38:46.068Z,22.44
2023-05-15T09:39:51.437Z,22.43
2023-05-15T09:40:56.774Z,22.43
2023-05-15T09:42:02.128Z,22.43
2023-05-15T09:43:07.445Z,22.42
2023-05-15T09:44:12.771Z,22.42
2023-05-15T09:45:18.083Z,22.43
2023-05-15T09:46:23.526Z,22.43
2023-05-15T09:47:29.231Z,22.43
2023-05-15T09:48:35.293Z,22.42
2023-05-15T09:49:40.731Z,22.41
2023-05-15T09:50:46.048Z,22.4
2023-05-15T09:51:51.347Z,22.42
2023-05-15T09:52:56.991Z,22.44
2023-05-15T09:54:02.362Z,22.45
2023-05-15T09:55:07.689Z,22.45
2023-05-15T09:56:12.993Z,22.46
2023-05-15T09:57:18.325Z,22.43
2023-05-15T09:58:23.677Z,22.42
2023-05-15T09:59:29.110Z,22.43
2023-05-15T10:00:34.436Z,22.43
2023-05-15T10:01:51.776Z,22.45
2023-05-15T10:02:57.588Z,22.44
2023-05-15T10:04:02.987Z,22.44
2023-05-15T10:05:08.427Z,22.41
2023-05-15T10:06:13.861Z,22.42
2023-05-15T10:07:19.446Z,22.44
2023-05-15T10:08:24.789Z,22.45
2023-05-15T10:09:30.106Z,22.45
2023-05-15T10:10:35.502Z,22.44
2023-05-15T10:11:40.909Z,22.44
2023-05-15T10:12:47.850Z,22.44
2023-05-15T10:13:53.628Z,22.4
2023-05-15T10:14:59.136Z,22.44
2023-05-15T10:16:04.464Z,22.41
2023-05-15T10:17:09.966Z,22.41
2023-05-15T10:18:15.296Z,22.4
2023-05-15T10:19:20.678Z,22.4
2023-05-15T10:20:26.879Z,22.37
2023-05-15T10:21:32.375Z,22.35
2023-05-15T10:22:37.671Z,22.36
2023-05-15T10:23:43.008Z,22.36
2023-05-15T10:24:48.317Z,22.36
2023-05-15T10:25:53.608Z,22.34
2023-05-15T10:26:58.915Z,22.35
2023-05-15T10:28:04.242Z,22.37
2023-05-15T10:29:09.546Z,22.36
2023-05-15T10:30:14.869Z,22.35
2023-05-15T10:31:20.305Z,22.37
2023-05-15T10:32:25.780Z,22.36
2023-05-15T10:33:31.176Z,22.35
2023-05-15T10:34:36.574Z,22.35
2023-05-15T10:35:41.872Z,22.33
2023-05-15T10:36:47.211Z,22.34
2023-05-15T10:37:52.541Z,22.31
2023-05-15T10:38:57.890Z,22.3
2023-05-15T10:40:03.179Z,22.29
2023-05-15T10:41:17.042Z,22.28
2023-05-15T10:42:23.008Z,22.26
2023-05-15T10:43:28.312Z,22.26
2023-05-15T10:44:33.603Z,22.29
2023-05-15T10:45:38.897Z,22.26
2023-05-15T10:46:44.270Z,22.26
2023-05-15T10:47:49.843Z,22.3
2023-05-15T10:48:55.338Z,22.25
2023-05-15T10:50:00.651Z,22.26
2023-05-15T10:51:05.938Z,22.25
2023-05-15T10:52:13.749Z,22.22
2023-05-15T10:53:19.052Z,22.21
2023-05-15T10:54:26.320Z,22.24
2023-05-15T10:55:31.792Z,22.21
2023-05-15T10:56:37.166Z,22.22
2023-05-15T10:57:42.498Z,22.23
2023-05-15T10:58:47.809Z,22.22
2023-05-15T10:59:53.205Z,22.2
2023-05-15T11:00:58.553Z,22.22
2023-05-15T11:02:04.013Z,22.21
2023-05-15T11:03:09.419Z,22.22
2023-05-15T11:04:14.864Z,22.22
2023-05-15T11:05:20.306Z,22.23
2023-05-15T11:06:25.652Z,22.22
2023-05-15T11:07:30.978Z,22.21
2023-05-15T11:08:36.309Z,22.18
2023-05-15T11:09:41.665Z,22.2
2023-05-15T11:10:46.995Z,22.18
2023-05-15T11:11:52.541Z,22.19
2023-05-15T11:12:57.985Z,22.2
2023-05-15T11:14:03.358Z,22.18
2023-05-15T11:15:08.679Z,22.17
2023-05-15T11:16:14.212Z,22.16
2023-05-15T11:17:19.678Z,22.18
2023-05-15T11:18:25.011Z,22.19
2023-05-15T11:19:30.469Z,22.19
2023-05-15T11:20:37.139Z,22.17
2023-05-15T11:21:42.547Z,22.14
2023-05-15T11:22:48.941Z,22.16
2023-05-15T11:23:54.265Z,22.16
2023-05-15T11:24:59.608Z,22.16
2023-05-15T11:26:04.935Z,22.16
2023-05-15T11:27:10.318Z,22.16
2023-05-15T11:28:15.643Z,22.18
2023-05-15T11:29:21.053Z,22.14
2023-05-15T11:30:26.510Z,22.16
2023-05-15T11:31:32.204Z,22.15
2023-05-15T11:32:37.746Z,22.14
2023-05-15T11:33:43.165Z,22.16
2023-05-15T11:34:48.479Z,22.13
2023-05-15T11:35:53.879Z,22.14
2023-05-15T11:36:59.169Z,22.14
2023-05-15T11:38:04.571Z,22.16
2023-05-15T11:39:09.956Z,22.17
2023-05-15T11:40:15.286Z,22.19
2023-05-15T11:41:20.591Z,22.2
2023-05-15T11:42:26.142Z,22.18
2023-05-15T11:43:31.489Z,22.15
2023-05-15T11:44:36.815Z,22.15
2023-05-15T11:45:42.106Z,22.17
2023-05-15T11:46:47.476Z,22.16
2023-05-15T11:47:53.264Z,22.16
2023-05-15T11:49:00.052Z,22.18
2023-05-15T11:50:05.478Z,22.19
2023-05-15T11:51:10.803Z,22.19
2023-05-15T11:52:16.094Z,22.18
2023-05-15T11:53:21.373Z,22.19
2023-05-15T11:54:27.727Z,22.17
2023-05-15T11:55:33.177Z,22.17
2023-05-15T11:56:38.474Z,22.19
2023-05-15T11:57:43.755Z,22.17
2023-05-15T11:58:49.084Z,22.18
2023-05-15T11:59:54.661Z,22.19
2023-05-15T12:00:59.961Z,22.17
2023-05-15T12:02:05.482Z,22.15
2023-05-15T12:03:10.924Z,22.14
2023-05-15T12:04:16.841Z,22.15
2023-05-15T12:05:23.299Z,22.14
2023-05-15T12:06:28.630Z,22.12
2023-05-15T12:07:33.969Z,22.13
2023-05-15T12:08:39.338Z,22.13
2023-05-15T12:09:44.668Z,22.15
2023-05-15T12:10:49.979Z,22.16
2023-05-15T12:11:55.296Z,22.14
2023-05-15T12:13:00.598Z,22.13
2023-05-15T12:14:05.910Z,22.12
2023-05-15T12:15:11.210Z,22.13
2023-05-15T12:16:16.590Z,22.13
2023-05-15T12:17:22.059Z,22.12
2023-05-15T12:18:27.471Z,22.12
2023-05-15T12:19:32.817Z,22.12
2023-05-15T12:20:38.125Z,22.1
2023-05-15T12:21:43.425Z,22.13
2023-05-15T12:22:48.795Z,22.14
2023-05-15T12:24:03.844Z,22.12
2023-05-15T12:25:12.520Z,22.13
2023-05-15T12:26:17.889Z,22.11
2023-05-15T12:27:23.273Z,22.12
2023-05-15T12:28:28.623Z,22.1
2023-05-15T12:29:33.946Z,22.11
2023-05-15T12:30:39.263Z,22.12
2023-05-15T12:31:44.549Z,22.12
2023-05-15T12:32:50.309Z,22.14
2023-05-15T12:33:55.812Z,22.11
2023-05-15T12:35:01.183Z,22.12
2023-05-15T12:36:09.560Z,22.13
2023-05-15T12:37:14.867Z,22.11
2023-05-15T12:38:20.145Z,22.12
2023-05-15T12:39:25.455Z,22.11
2023-05-15T12:40:30.737Z,22.13
2023-05-15T12:41:36.297Z,22.1
2023-05-15T12:42:41.659Z,22.09
2023-05-15T12:43:46.987Z,22.09
2023-05-15T12:44:52.339Z,22.1
2023-05-15T12:45:57.690Z,22.1
2023-05-15T12:47:03.352Z,22.11
2023-05-15T12:48:08.754Z,22.12
2023-05-15T12:49:14.195Z,22.09
2023-05-15T12:50:19.505Z,22.11
2023-05-15T12:51:24.843Z,22.12
2023-05-15T12:52:30.325Z,22.12
2023-05-15T12:53:35.619Z,22.11
2023-05-15T12:54:42.272Z,22.12
2023-05-15T12:55:47.606Z,22.13
2023-05-15T12:56:52.940Z,22.13
2023-05-15T12:58:00.482Z,22.14
2023-05-15T12:59:05.798Z,22.13
2023-05-15T13:00:11.110Z,22.11
2023-05-15T13:01:16.485Z,22.09
2023-05-15T13:02:23.328Z,22.1
2023-05-15T13:03:28.929Z,22.1
2023-05-15T13:04:34.708Z,22.1
2023-05-15T13:05:40.060Z,22.09
2023-05-15T13:06:47.110Z,22.09
2023-05-15T13:07:53.124Z,22.08
2023-05-15T13:08:58.423Z,22.08
2023-05-15T13:10:03.742Z,22.1
2023-05-15T13:11:09.076Z,22.09
2023-05-15T13:12:15.427Z,22.1
2023-05-15T13:13:20.752Z,22.1
2023-05-15T13:14:26.060Z,22.09
2023-05-15T13:15:31.403Z,22.09
2023-05-15T13:16:36.884Z,22.09
2023-05-15T13:17:42.510Z,22.09
2023-05-15T13:18:48.333Z,22.12
2023-05-15T13:19:54.154Z,22.12
2023-05-15T13:20:59.617Z,22.1
2023-05-15T13:22:05.022Z,22.11
2023-05-15T13:23:10.367Z,22.11
2023-05-15T13:24:15.702Z,22.11
2023-05-15T13:25:21.023Z,22.13
2023-05-15T13:26:26.586Z,22.12
2023-05-15T13:27:31.903Z,22.13
2023-05-15T13:28:37.487Z,22.12
2023-05-15T13:29:42.899Z,22.12
2023-05-15T13:30:48.239Z,22.13
2023-05-15T13:31:53.591Z,22.14
2023-05-15T13:32:59.227Z,22.13
2023-05-15T13:34:04.771Z,22.14
2023-05-15T13:35:10.066Z,22.13
2023-05-15T13:36:15.411Z,22.13
2023-05-15T13:37:20.796Z,22.13
2023-05-15T13:38:26.250Z,22.14
2023-05-15T13:39:31.667Z,22.13
2023-05-15T13:40:36.994Z,22.12
2023-05-15T13:41:42.456Z,22.12
2023-05-15T13:42:47.878Z,22.12
2023-05-15T13:43:53.270Z,22.12
2023-05-15T13:44:58.599Z,22.12
2023-05-15T13:46:03.959Z,22.12
2023-05-15T13:47:09.279Z,22.12
2023-05-15T13:48:14.912Z,22.13
2023-05-15T13:49:20.515Z,22.11
2023-05-15T13:50:28.204Z,22.11
2023-05-15T13:51:33.624Z,22.11
2023-05-15T13:52:38.925Z,22.12
2023-05-15T13:53:44.293Z,22.12
2023-05-15T13:54:49.660Z,22.1
2023-05-15T13:55:54.976Z,22.11
2023-05-15T13:57:00.483Z,22.1
2023-05-15T13:58:05.923Z,22.11
2023-05-15T13:59:11.300Z,22.13
2023-05-15T14:00:16.601Z,22.13
2023-05-15T14:01:21.994Z,22.13
2023-05-15T14:02:27.607Z,22.16
2023-05-15T14:03:33.062Z,22.15
2023-05-15T14:04:38.843Z,22.16
2023-05-15T14:05:44.182Z,22.16
2023-05-15T14:06:49.500Z,22.18
2023-05-15T14:07:54.793Z,22.17